HGS weather

Hastings Airport
Freetown, Western Area, Sierra Leone

Public forecast

Using degrees Celsius for public forecast. Weather courtesy of forecast.io.

Closest aviation weather report (METAR) to Hastings Airport

Report is more than 6 hours old.

Closest report is Lungi International Airport, 13.7 nm (25.5 km) NNW. Retrieved 2020/06/04 13:00 UTC (15 hours ago):

GFLL 041300Z 27004KT 9999 SCT013 FEW027CB 30/24 Q1012 RMK CB-NE

Closest aviation forecast (TAF) to Hastings Airport

Forecast is more than 6 hours old.

Closest forecast is Lungi International Airport, 13.7 nm (25.5 km) NNW. Retrieved 2020/06/04 18:00 UTC (10 hours ago):

TAF GFLL 041700Z 0418/0524 27010KT 9999 BKN013 FEW027CB PROB30 TEMPO 0419/0423 24010KT TS SCT013 FEW026CB PROB30 TEMPO 0501/0504 12010KT 6000 TSRA BKN009 FEW024CB BECMG 0508/0510 09003KT 9999 BKN010 FEW026CB